createdAt,value
2019-01-12T00:00:12.281Z,100920.37
2019-01-12T00:02:40.804Z,100911.23
2019-01-12T00:05:09.673Z,100910.22
2019-01-12T00:07:38.140Z,100914.64
2019-01-12T00:10:08.793Z,100920.94
2019-01-12T00:12:37.421Z,100918.29
2019-01-12T00:15:07.457Z,100918.20
2019-01-12T00:17:36.238Z,100913.62
2019-01-12T00:20:07.016Z,100917.50
2019-01-12T00:22:35.776Z,100919.31
2019-01-12T00:25:06.724Z,100920.44
2019-01-12T00:27:35.323Z,100923.14
2019-01-12T00:30:05.180Z,100927.11
2019-01-12T00:32:33.724Z,100919.17
2019-01-12T00:35:02.300Z,100929.05
2019-01-12T00:37:30.802Z,100922.66
2019-01-12T00:39:59.328Z,100929.41
2019-01-12T00:42:27.908Z,100922.09
2019-01-12T00:44:56.296Z,100922.67
2019-01-12T00:47:24.849Z,100928.52
2019-01-12T00:49:53.337Z,100931.08
2019-01-12T00:52:21.877Z,100929.35
2019-01-12T00:54:50.690Z,100934.43
2019-01-12T00:57:19.346Z,100933.73
2019-01-12T00:59:47.845Z,100936.99
2019-01-12T01:02:16.451Z,100944.26
2019-01-12T01:04:44.864Z,100941.61
2019-01-12T01:07:13.465Z,100949.73
2019-01-12T01:09:41.967Z,100941.31
2019-01-12T01:12:10.753Z,100945.22
2019-01-12T01:14:39.620Z,100953.78
2019-01-12T01:17:08.078Z,100952.19
2019-01-12T01:19:36.684Z,100954.48
2019-01-12T01:22:05.175Z,100961.32
2019-01-12T01:24:33.690Z,100963.45
2019-01-12T01:27:02.245Z,100964.98
2019-01-12T01:29:30.714Z,100966.30
2019-01-12T01:31:59.186Z,100968.69
2019-01-12T01:34:27.795Z,100970.62
2019-01-12T01:36:56.305Z,100969.02
2019-01-12T01:39:24.781Z,100971.31
2019-01-12T01:41:53.450Z,100972.50
2019-01-12T01:44:21.979Z,100978.76
2019-01-12T01:46:50.548Z,100989.78
2019-01-12T01:49:19.155Z,100995.08
2019-01-12T01:51:47.685Z,100995.34
2019-01-12T01:54:16.451Z,100990.60
2019-01-12T01:56:45.281Z,100998.18
2019-01-12T01:59:13.856Z,101000.34
2019-01-12T02:01:42.593Z,100999.86
2019-01-12T02:04:11.518Z,101008.27
2019-01-12T02:06:40.060Z,101000.25
2019-01-12T02:09:08.640Z,101002.22
2019-01-12T02:11:37.188Z,101002.89
2019-01-12T02:14:05.844Z,101005.47
2019-01-12T02:16:34.399Z,101005.34
2019-01-12T02:19:02.954Z,101003.89
2019-01-12T02:21:31.429Z,101003.73
2019-01-12T02:24:00.001Z,100996.15
2019-01-12T02:26:28.508Z,100999.09
2019-01-12T02:28:56.973Z,101005.34
2019-01-12T02:31:25.528Z,100998.02
2019-01-12T02:33:54.001Z,100992.09
2019-01-12T02:36:22.587Z,100999.89
2019-01-12T02:38:51.050Z,100985.22
2019-01-12T02:41:19.589Z,100987.02
2019-01-12T02:43:48.347Z,100990.70
2019-01-12T02:46:17.311Z,100986.73
2019-01-12T02:48:45.770Z,100978.38
2019-01-12T02:51:14.428Z,100982.34
2019-01-12T02:53:42.957Z,100976.93
2019-01-12T02:56:11.909Z,100993.64
2019-01-12T02:58:40.621Z,100988.55
2019-01-12T03:01:09.247Z,100983.73
2019-01-12T03:03:37.626Z,100981.45
2019-01-12T03:06:06.114Z,100984.58
2019-01-12T03:08:34.599Z,100982.41
2019-01-12T03:11:03.105Z,100981.38
2019-01-12T03:13:31.672Z,100986.67
2019-01-12T03:16:00.129Z,100985.13
2019-01-12T03:18:28.601Z,100984.28
2019-01-12T03:20:57.142Z,100980.06
2019-01-12T03:23:25.615Z,100976.09
2019-01-12T03:25:54.127Z,100978.38
2019-01-12T03:28:22.641Z,100978.61
2019-01-12T03:30:51.170Z,100972.48
2019-01-12T03:33:19.714Z,100978.45
2019-01-12T03:35:48.205Z,100969.42
2019-01-12T03:38:16.679Z,100967.87
2019-01-12T03:40:45.241Z,100964.67
2019-01-12T03:43:14.105Z,100963.70
2019-01-12T03:45:42.617Z,100961.12
2019-01-12T03:48:11.107Z,100963.84
2019-01-12T03:50:39.634Z,100959.52
2019-01-12T03:53:08.135Z,100969.74
2019-01-12T03:55:36.593Z,100965.42
2019-01-12T03:58:05.434Z,100961.27
2019-01-12T04:00:33.971Z,100960.91
2019-01-12T04:03:02.464Z,100951.30
2019-01-12T04:05:30.919Z,100945.02
2019-01-12T04:07:59.379Z,100951.23
2019-01-12T04:10:27.937Z,100948.72
2019-01-12T04:12:56.466Z,100946.72
2019-01-12T04:15:25.005Z,100946.72
2019-01-12T04:17:53.595Z,100948.72
2019-01-12T04:20:22.108Z,100948.52
2019-01-12T04:22:50.653Z,100943.50
2019-01-12T04:25:19.257Z,100945.05
2019-01-12T04:27:47.794Z,100939.63
2019-01-12T04:30:16.912Z,100938.98
2019-01-12T04:32:45.398Z,100944.27
2019-01-12T04:35:13.940Z,100944.97
2019-01-12T04:37:42.453Z,100943.59
2019-01-12T04:40:18.052Z,100947.11
2019-01-12T04:42:46.522Z,100940.66
2019-01-12T04:45:15.229Z,100933.98
2019-01-12T04:47:43.709Z,100934.11
2019-01-12T04:50:14.054Z,100931.47
2019-01-12T04:52:42.561Z,100933.53
2019-01-12T04:55:11.262Z,100933.89
2019-01-12T04:57:39.753Z,100932.92
2019-01-12T05:00:11.415Z,100928.83
2019-01-12T05:02:39.975Z,100939.27
2019-01-12T05:05:08.557Z,100934.88
2019-01-12T05:07:37.067Z,100934.69
2019-01-12T05:10:08.445Z,100935.02
2019-01-12T05:12:37.107Z,100937.95
2019-01-12T05:15:08.440Z,100938.14
2019-01-12T05:17:36.904Z,100939.33
2019-01-12T05:20:08.509Z,100935.70
2019-01-12T05:22:36.971Z,100930.98
2019-01-12T05:25:06.222Z,100936.11
2019-01-12T05:27:34.673Z,100939.11
2019-01-12T05:30:04.878Z,100938.56
2019-01-12T05:32:33.350Z,100936.50
2019-01-12T05:35:01.849Z,100936.34
2019-01-12T05:37:30.290Z,100937.50
2019-01-12T05:39:58.789Z,100937.95
2019-01-12T05:42:27.309Z,100939.89
2019-01-12T05:44:55.921Z,100932.05
2019-01-12T05:47:24.379Z,100936.69
2019-01-12T05:49:54.241Z,100931.53
2019-01-12T05:52:22.800Z,100933.08
2019-01-12T05:54:51.277Z,100934.63
2019-01-12T05:57:19.741Z,100928.20
2019-01-12T05:59:48.274Z,100935.52
2019-01-12T06:02:16.830Z,100928.78
2019-01-12T06:04:45.358Z,100927.81
2019-01-12T06:07:13.860Z,100926.36
2019-01-12T06:09:42.315Z,100925.58
2019-01-12T06:12:10.888Z,100928.64
2019-01-12T06:14:39.356Z,100926.67
2019-01-12T06:17:07.837Z,100936.16
2019-01-12T06:19:36.287Z,100933.58
2019-01-12T06:22:04.858Z,100938.58
2019-01-12T06:24:33.384Z,100931.77
2019-01-12T06:27:01.890Z,100929.88
2019-01-12T06:29:30.833Z,100936.98
2019-01-12T06:31:59.369Z,100933.37
2019-01-12T06:34:27.932Z,100936.89
2019-01-12T06:36:56.365Z,100938.78
2019-01-12T06:39:24.926Z,100935.02
2019-01-12T06:41:53.514Z,100935.72
2019-01-12T06:44:22.007Z,100938.11
2019-01-12T06:46:50.541Z,100938.78
2019-01-12T06:49:19.183Z,100932.32
2019-01-12T06:51:47.718Z,100941.58
2019-01-12T06:54:16.316Z,100933.94
2019-01-12T06:56:44.833Z,100925.50
2019-01-12T06:59:13.419Z,100930.72
2019-01-12T07:01:41.921Z,100930.86
2019-01-12T07:04:10.650Z,100929.09
2019-01-12T07:06:39.185Z,100929.66
2019-01-12T07:09:07.923Z,100928.11
2019-01-12T07:11:36.383Z,100927.77
2019-01-12T07:14:04.943Z,100929.73
2019-01-12T07:16:33.398Z,100934.05
2019-01-12T07:19:01.927Z,100930.89
2019-01-12T07:21:30.547Z,100926.66
2019-01-12T07:23:59.087Z,100938.08
2019-01-12T07:26:27.793Z,100930.09
2019-01-12T07:28:56.265Z,100931.89
2019-01-12T07:31:24.831Z,100939.82
2019-01-12T07:33:53.382Z,100941.91
2019-01-12T07:36:22.008Z,100935.21
2019-01-12T07:38:50.554Z,100938.30
2019-01-12T07:41:19.133Z,100945.17
2019-01-12T07:43:47.639Z,100937.34
2019-01-12T07:46:16.099Z,100933.37
2019-01-12T07:48:44.639Z,100936.81
2019-01-12T07:51:13.190Z,100937.66
2019-01-12T07:53:41.757Z,100932.92
2019-01-12T07:56:10.270Z,100930.89
2019-01-12T07:58:38.851Z,100924.28
2019-01-12T08:01:07.430Z,100926.25
2019-01-12T08:03:36.045Z,100918.45
2019-01-12T08:06:04.710Z,100916.64
2019-01-12T08:08:33.248Z,100909.22
2019-01-12T08:11:02.245Z,100910.80
2019-01-12T08:13:30.919Z,100915.76
2019-01-12T08:15:59.459Z,100907.30
2019-01-12T08:18:27.938Z,100899.36
2019-01-12T08:20:56.472Z,100901.33
2019-01-12T08:23:25.004Z,100905.64
2019-01-12T08:25:53.595Z,100909.91
2019-01-12T08:28:22.110Z,100905.52
2019-01-12T08:30:50.603Z,100903.77
2019-01-12T08:33:19.210Z,100893.36
2019-01-12T08:35:47.764Z,100898.34
2019-01-12T08:38:16.327Z,100885.78
2019-01-12T08:40:44.811Z,100889.80
2019-01-12T08:43:13.467Z,100879.36
2019-01-12T08:45:41.929Z,100878.38
2019-01-12T08:48:10.481Z,100868.44
2019-01-12T08:50:39.293Z,100866.70
2019-01-12T08:53:10.681Z,100875.61
2019-01-12T08:55:39.205Z,100863.00
2019-01-12T08:58:07.785Z,100864.90
2019-01-12T09:00:36.240Z,100857.17
2019-01-12T09:03:04.792Z,100858.34
2019-01-12T09:05:33.456Z,100855.50
2019-01-12T09:08:01.906Z,100857.52
2019-01-12T09:10:30.516Z,100848.17
2019-01-12T09:12:59.161Z,100844.28
2019-01-12T09:15:27.715Z,100838.86
2019-01-12T09:17:56.173Z,100842.06
2019-01-12T09:20:25.027Z,100829.81
2019-01-12T09:22:53.548Z,100824.58
2019-01-12T09:25:22.438Z,100818.68
2019-01-12T09:27:51.064Z,100815.29
2019-01-12T09:30:20.412Z,100811.52
2019-01-12T09:32:48.989Z,100817.56
2019-01-12T09:35:17.549Z,100811.04
2019-01-12T09:37:46.049Z,100818.62
2019-01-12T09:40:16.683Z,100812.55
2019-01-12T09:42:45.306Z,100810.47
2019-01-12T09:45:15.715Z,100801.14
2019-01-12T09:47:44.294Z,100794.05
2019-01-12T09:50:17.530Z,100793.77
2019-01-12T09:52:46.164Z,100798.27
2019-01-12T09:55:15.223Z,100781.03
2019-01-12T09:57:44.067Z,100786.84
2019-01-12T10:00:21.320Z,100794.38
2019-01-12T10:02:49.870Z,100783.78
2019-01-12T10:05:18.528Z,100785.84
2019-01-12T10:07:47.130Z,100775.50
2019-01-12T10:10:17.970Z,100767.67
2019-01-12T10:12:46.512Z,100753.92
2019-01-12T10:15:15.562Z,100762.01
2019-01-12T10:17:44.183Z,100746.02
2019-01-12T10:20:15.337Z,100752.08
2019-01-12T10:22:44.070Z,100748.22
2019-01-12T10:25:13.224Z,100739.92
2019-01-12T10:27:41.760Z,100740.27
2019-01-12T10:30:21.214Z,100730.66
2019-01-12T10:32:49.845Z,100731.24
2019-01-12T10:35:18.417Z,100733.23
2019-01-12T10:37:46.974Z,100738.63
2019-01-12T10:40:17.375Z,100728.33
2019-01-12T10:42:45.930Z,100727.91
2019-01-12T10:45:16.931Z,100716.97
2019-01-12T10:47:45.657Z,100712.03
2019-01-12T10:50:22.930Z,100709.03
2019-01-12T10:52:51.690Z,100709.17
2019-01-12T10:55:20.333Z,100703.36
2019-01-12T10:57:49.336Z,100702.69
2019-01-12T11:00:20.689Z,100700.98
2019-01-12T11:02:50.353Z,100692.77
2019-01-12T11:05:19.250Z,100685.55
2019-01-12T11:07:47.801Z,100687.31
2019-01-12T11:10:16.384Z,100688.88
2019-01-12T11:12:45.137Z,100680.73
2019-01-12T11:15:16.612Z,100684.70
2019-01-12T11:17:45.238Z,100672.44
2019-01-12T11:20:13.781Z,100672.44
2019-01-12T11:22:42.385Z,100661.70
2019-01-12T11:25:13.552Z,100660.36
2019-01-12T11:27:42.211Z,100661.91
2019-01-12T11:30:19.006Z,100655.34
2019-01-12T11:32:47.561Z,100642.05
2019-01-12T11:35:16.177Z,100635.57
2019-01-12T11:37:44.769Z,100638.59
2019-01-12T11:40:18.464Z,100627.97
2019-01-12T11:42:47.962Z,100621.00
2019-01-12T11:45:16.705Z,100610.78
2019-01-12T11:47:45.311Z,100610.06
2019-01-12T11:50:17.218Z,100612.20
2019-01-12T11:52:46.772Z,100611.31
2019-01-12T11:55:16.879Z,100600.08
2019-01-12T11:57:45.492Z,100607.08
2019-01-12T12:00:25.635Z,100599.77
2019-01-12T12:02:54.448Z,100605.38
2019-01-12T12:05:22.956Z,100597.38
2019-01-12T12:07:51.732Z,100591.23
2019-01-12T12:10:21.068Z,100585.61
2019-01-12T12:12:49.608Z,100571.31
2019-01-12T12:15:20.659Z,100571.95
2019-01-12T12:17:49.382Z,100561.11
2019-01-12T12:20:25.580Z,100558.34
2019-01-12T12:22:54.315Z,100551.01
2019-01-12T12:25:22.869Z,100540.38
2019-01-12T12:27:51.459Z,100542.41
2019-01-12T12:30:24.977Z,100537.06
2019-01-12T12:32:53.600Z,100520.83
2019-01-12T12:35:22.173Z,100514.20
2019-01-12T12:37:50.881Z,100515.80
2019-01-12T12:40:20.957Z,100506.25
2019-01-12T12:42:49.594Z,100490.73
2019-01-12T12:45:29.582Z,100491.92
2019-01-12T12:47:58.151Z,100486.55
2019-01-12T12:50:26.762Z,100487.87
2019-01-12T12:52:55.386Z,100483.56
2019-01-12T12:55:23.872Z,100474.98
2019-01-12T12:57:52.417Z,100466.12
2019-01-12T13:00:26.111Z,100465.48
2019-01-12T13:02:54.765Z,100462.98
2019-01-12T13:05:23.403Z,100453.32
2019-01-12T13:07:52.022Z,100448.03
2019-01-12T13:10:23.051Z,100451.15
2019-01-12T13:12:51.618Z,100446.15
2019-01-12T13:15:20.262Z,100437.22
2019-01-12T13:17:49.126Z,100444.84
2019-01-12T13:20:20.579Z,100444.48
2019-01-12T13:22:49.568Z,100442.22
2019-01-12T13:25:18.155Z,100427.88
2019-01-12T13:27:46.813Z,100424.33
2019-01-12T13:30:17.936Z,100424.53
2019-01-12T13:32:46.441Z,100417.76
2019-01-12T13:35:15.156Z,100416.09
2019-01-12T13:37:43.763Z,100408.01
2019-01-12T13:40:15.307Z,100409.42
2019-01-12T13:42:43.949Z,100399.33
2019-01-12T13:45:15.334Z,100396.45
2019-01-12T13:47:43.817Z,100385.20
2019-01-12T13:50:14.684Z,100386.47
2019-01-12T13:52:43.212Z,100381.48
2019-01-12T13:55:13.493Z,100378.13
2019-01-12T13:57:47.346Z,100370.88
2019-01-12T14:00:15.575Z,100361.70
2019-01-12T14:02:44.125Z,100354.88
2019-01-12T14:05:12.647Z,100352.03
2019-01-12T14:07:41.218Z,100354.24
2019-01-12T14:10:12.779Z,100351.20
2019-01-12T14:12:41.380Z,100340.33
2019-01-12T14:15:12.628Z,100343.25
2019-01-12T14:17:41.230Z,100345.98
2019-01-12T14:20:15.589Z,100333.72
2019-01-12T14:22:44.338Z,100329.37
2019-01-12T14:25:12.922Z,100322.37
2019-01-12T14:27:41.528Z,100320.73
2019-01-12T14:30:15.617Z,100310.77
2019-01-12T14:32:43.505Z,100312.92
2019-01-12T14:35:14.589Z,100312.09
2019-01-12T14:37:43.348Z,100299.13
2019-01-12T14:40:14.438Z,100296.52
2019-01-12T14:42:43.113Z,100292.68
2019-01-12T14:45:23.121Z,100282.43
2019-01-12T14:47:51.825Z,100280.98
2019-01-12T14:50:20.463Z,100279.78
2019-01-12T14:52:49.078Z,100270.69
2019-01-12T14:55:19.110Z,100274.50
2019-01-12T14:57:47.740Z,100265.83
2019-01-12T15:00:18.348Z,100254.47
2019-01-12T15:02:46.908Z,100250.31
2019-01-12T15:05:17.451Z,100244.66
2019-01-12T15:07:46.444Z,100243.69
2019-01-12T15:10:17.310Z,100232.42
2019-01-12T15:12:46.299Z,100230.25
2019-01-12T15:15:19.081Z,100221.98
2019-01-12T15:17:47.999Z,100217.97
2019-01-12T15:20:21.333Z,100214.25
2019-01-12T15:22:49.956Z,100219.19
2019-01-12T15:25:18.503Z,100209.61
2019-01-12T15:27:46.989Z,100206.91
2019-01-12T15:30:21.201Z,100209.89
2019-01-12T15:32:50.013Z,100205.92
2019-01-12T15:35:19.391Z,100197.31
2019-01-12T15:37:47.933Z,100194.67
2019-01-12T15:40:18.555Z,100188.74
2019-01-12T15:42:47.081Z,100182.82
2019-01-12T15:45:20.541Z,100166.96
2019-01-12T15:47:49.199Z,100164.95
2019-01-12T15:50:22.658Z,100165.30
2019-01-12T15:52:51.268Z,100157.66
2019-01-12T15:55:19.905Z,100156.69
2019-01-12T15:57:48.494Z,100160.30
2019-01-12T16:00:25.252Z,100155.70
2019-01-12T16:02:53.824Z,100149.09
2019-01-12T16:05:22.350Z,100141.49
2019-01-12T16:07:50.984Z,100143.66
2019-01-12T16:10:19.609Z,100141.84
2019-01-12T16:12:48.122Z,100118.84
2019-01-12T16:15:21.448Z,100125.30
2019-01-12T16:17:50.171Z,100116.20
2019-01-12T16:20:21.698Z,100115.07
2019-01-12T16:22:50.255Z,100108.13
2019-01-12T16:25:18.894Z,100108.13
2019-01-12T16:27:47.446Z,100099.21
2019-01-12T16:30:17.873Z,100096.27
2019-01-12T16:32:46.876Z,100092.64
2019-01-12T16:35:15.504Z,100092.94
2019-01-12T16:37:44.128Z,100096.61
2019-01-12T16:40:15.391Z,100082.72
2019-01-12T16:42:44.299Z,100081.88
2019-01-12T16:45:13.010Z,100071.80
2019-01-12T16:47:41.575Z,100073.77
2019-01-12T16:50:10.213Z,100066.85
2019-01-12T16:52:38.754Z,100051.48
2019-01-12T16:55:10.281Z,100055.11
2019-01-12T16:57:38.907Z,100053.79
2019-01-12T17:00:13.233Z,100040.42
2019-01-12T17:02:42.049Z,100045.06
2019-01-12T17:05:10.656Z,100042.08
2019-01-12T17:07:39.280Z,100039.25
2019-01-12T17:10:15.744Z,100037.78
2019-01-12T17:12:44.289Z,100035.47
2019-01-12T17:15:14.620Z,100035.47
2019-01-12T17:17:43.265Z,100032.83
2019-01-12T17:20:19.720Z,100024.89
2019-01-12T17:22:46.354Z,100026.34
2019-01-12T17:25:14.935Z,100019.27
2019-01-12T17:27:43.571Z,100026.86
2019-01-12T17:30:17.871Z,100011.00
2019-01-12T17:32:49.200Z,100027.54
2019-01-12T17:35:17.777Z,100011.98
2019-01-12T17:37:47.115Z,100016.14
2019-01-12T17:40:17.176Z,100008.36
2019-01-12T17:42:45.718Z,100002.77
2019-01-12T17:45:18.919Z,100015.31
2019-01-12T17:47:47.811Z,100009.53
2019-01-12T17:50:18.331Z,100008.70
2019-01-12T17:52:47.127Z,99996.80
2019-01-12T17:55:17.597Z,100010.05
2019-01-12T17:57:46.233Z,99999.48
2019-01-12T18:00:24.845Z,100002.13
2019-01-12T18:02:53.779Z,100000.80
2019-01-12T18:05:22.392Z,99998.16
2019-01-12T18:07:51.184Z,100004.13
2019-01-12T18:10:19.916Z,100001.14
2019-01-12T18:12:48.584Z,99996.53
2019-01-12T18:15:18.934Z,100007.10
2019-01-12T18:17:47.447Z,100008.12
2019-01-12T18:20:17.472Z,100004.83
2019-01-12T18:22:46.183Z,100004.17
2019-01-12T18:25:15.031Z,100003.16
2019-01-12T18:27:43.593Z,100009.28
2019-01-12T18:30:17.829Z,100000.70
2019-01-12T18:32:46.716Z,99997.23
2019-01-12T18:35:15.296Z,99997.07
2019-01-12T18:37:44.140Z,99992.13
2019-01-12T18:40:15.446Z,99998.05
2019-01-12T18:42:44.204Z,100001.03
2019-01-12T18:45:15.590Z,99993.09
2019-01-12T18:47:44.336Z,99998.58
2019-01-12T18:50:24.042Z,99997.09
2019-01-12T18:52:53.218Z,99991.28
2019-01-12T18:55:21.910Z,99986.51
2019-01-12T18:57:50.605Z,99990.30
2019-01-12T19:00:21.166Z,99982.20
2019-01-12T19:02:50.220Z,99982.02
2019-01-12T19:05:18.756Z,99979.91
2019-01-12T19:07:48.017Z,99978.39
2019-01-12T19:10:16.688Z,99976.08
2019-01-12T19:12:45.447Z,99975.12
2019-01-12T19:15:16.680Z,99967.98
2019-01-12T19:17:45.394Z,99968.01
2019-01-12T19:20:14.142Z,99967.17
2019-01-12T19:22:43.082Z,99965.54
2019-01-12T19:25:13.995Z,99969.16
2019-01-12T19:27:42.603Z,99966.86
2019-01-12T19:30:22.218Z,99961.38
2019-01-12T19:32:50.847Z,99957.61
2019-01-12T19:35:24.888Z,99964.52
2019-01-12T19:37:53.572Z,99963.87
2019-01-12T19:40:23.118Z,99959.57
2019-01-12T19:42:52.020Z,99966.35
2019-01-12T19:45:20.541Z,99959.57
2019-01-12T19:47:49.201Z,99951.98
2019-01-12T19:50:24.518Z,99956.95
2019-01-12T19:52:53.257Z,99967.85
2019-01-12T19:55:21.889Z,99964.89
2019-01-12T19:57:50.503Z,99961.75
2019-01-12T20:00:21.715Z,99968.84
2019-01-12T20:02:50.432Z,99964.88
2019-01-12T20:05:19.022Z,99951.31
2019-01-12T20:07:48.755Z,99951.00
2019-01-12T20:10:18.883Z,99951.66
2019-01-12T20:12:47.379Z,99946.20
2019-01-12T20:15:18.520Z,99944.38
2019-01-12T20:17:47.048Z,99942.41
2019-01-12T20:20:16.643Z,99941.06
2019-01-12T20:22:45.196Z,99935.75
2019-01-12T20:25:16.951Z,99935.27
2019-01-12T20:27:45.551Z,99942.70
2019-01-12T20:30:19.864Z,99924.02
2019-01-12T20:32:57.731Z,99924.67
2019-01-12T20:35:32.460Z,99929.47
2019-01-12T20:38:04.033Z,99925.20
2019-01-12T20:40:47.226Z,99917.23
2019-01-12T20:43:36.397Z,99924.53
2019-01-12T20:46:10.783Z,99920.55
2019-01-12T20:48:51.299Z,99919.55
2019-01-12T20:51:37.657Z,99913.59
2019-01-12T20:54:21.380Z,99914.10
2019-01-12T20:57:21.550Z,99907.98
2019-01-12T20:59:53.192Z,99914.92
2019-01-12T21:02:27.529Z,99910.63
2019-01-12T21:05:20.203Z,99903.67
2019-01-12T21:07:54.672Z,99908.29
2019-01-12T21:10:29.402Z,99903.83
2019-01-12T21:13:23.355Z,99903.00
2019-01-12T21:15:55.183Z,99897.06
2019-01-12T21:18:24.024Z,99900.34
2019-01-12T21:20:52.894Z,99884.83
2019-01-12T21:23:21.733Z,99886.31
2019-01-12T21:25:50.389Z,99893.76
2019-01-12T21:28:19.265Z,99900.05
2019-01-12T21:30:47.918Z,99891.11
2019-01-12T21:33:16.539Z,99884.16
2019-01-12T21:35:45.317Z,99886.49
2019-01-12T21:38:13.992Z,99876.72
2019-01-12T21:40:42.851Z,99881.53
2019-01-12T21:43:11.394Z,99876.88
2019-01-12T21:45:40.130Z,99875.91
2019-01-12T21:48:08.717Z,99871.77
2019-01-12T21:50:37.321Z,99877.05
2019-01-12T21:53:06.095Z,99870.28
2019-01-12T21:55:34.726Z,99873.59
2019-01-12T21:58:03.456Z,99872.25
2019-01-12T22:00:32.477Z,99865.31
2019-01-12T22:03:01.166Z,99868.77
2019-01-12T22:05:29.767Z,99863.63
2019-01-12T22:07:58.285Z,99864.63
2019-01-12T22:10:26.930Z,99857.67
2019-01-12T22:12:55.491Z,99852.56
2019-01-12T22:15:24.064Z,99854.55
2019-01-12T22:17:52.750Z,99857.67
2019-01-12T22:20:21.383Z,99858.02
2019-01-12T22:22:50.043Z,99857.38
2019-01-12T22:25:18.582Z,99854.90
2019-01-12T22:27:47.401Z,99858.35
2019-01-12T22:30:17.771Z,99853.06
2019-01-12T22:32:46.712Z,99851.41
2019-01-12T22:35:15.263Z,99846.11
2019-01-12T22:37:43.844Z,99843.81
2019-01-12T22:40:17.538Z,99845.98
2019-01-12T22:42:46.094Z,99844.48
2019-01-12T22:45:14.713Z,99837.88
2019-01-12T22:47:43.487Z,99845.80
2019-01-12T22:50:15.106Z,99842.34
2019-01-12T22:52:44.007Z,99839.53
2019-01-12T22:55:13.860Z,99828.28
2019-01-12T22:57:42.510Z,99827.44
2019-01-12T23:00:41.146Z,99845.80
2019-01-12T23:03:09.729Z,99823.33
2019-01-12T23:05:38.330Z,99823.63
2019-01-12T23:08:06.955Z,99818.52
2019-01-12T23:10:35.632Z,99817.02
2019-01-12T23:13:04.269Z,99821.63
2019-01-12T23:15:32.788Z,99809.08
2019-01-12T23:18:01.397Z,99808.75
2019-01-12T23:20:30.076Z,99805.44
2019-01-12T23:22:58.704Z,99801.66
2019-01-12T23:25:27.553Z,99804.11
2019-01-12T23:27:56.448Z,99798.00
2019-01-12T23:30:24.929Z,99803.95
2019-01-12T23:32:53.634Z,99798.50
2019-01-12T23:35:22.251Z,99797.85
2019-01-12T23:37:51.068Z,99788.56
2019-01-12T23:40:19.630Z,99796.84
2019-01-12T23:42:48.240Z,99791.22
2019-01-12T23:45:16.798Z,99803.13
2019-01-12T23:47:45.476Z,99791.22
2019-01-12T23:50:14.407Z,99791.55
2019-01-12T23:52:43.210Z,99783.59
2019-01-12T23:55:11.832Z,99785.23
2019-01-12T23:57:40.429Z,99795.33
